SBGOSBUR

Guest
Details From SBGO - Santo Genoveva
To SBUR - Uberaba
Flight Number -
Tags generated
Created
Modified
Stats Distance 202 nm / 373 km
Max Altitude 15,000 ft / 4,572 m
Waypoints 4
Social Downloads 2
Likes 0
Share VATSIM

Download

Looking for another format? Having issues loading an existing format? Contact us
Advertisement - Login to hide

Notes

Basic altitude profile: - Ascent Rate: 2500ft/min - Ascent Speed: 250kts - Cruise Altitude: 35000ft - Cruise Speed: 420kts - Descent Rate: 1500ft/min - Descent Speed: 250kts Options: - Use NATs: yes - Use PACOTS: yes - Use low airways: yes - Use high airways: yes

Route

SBGO GAZAR W24 GUARI SBUR

ID Type Via Altitude Latitude Longitude Leg Dist Tot Dist Heading (true) Name
O SBGO APT - 0 ft / 0 m -16.63203˚ -49.22069˚ - 0 nm - Santo Genoveva
GAZAR FIX - 9,700 ft / 2,957 m -17.04883˚ -49.03550˚ 27 nm 27 nm 157° / 157° -
GUARI FIX W24 (AWY-LO) 15,000 ft / 4,572 m -18.57883˚ -48.36633˚ 99 nm 126 nm 157° / 157° -
O SBUR APT - 0 ft / 0 m -19.76500˚ -47.96478˚ 74 nm 201 nm 162° / 162° Uberaba

Altitude Profile

Advertisement - Login to hide

Weather


0- 5 10 15 20 25 30 35+ Temperature / ° C

Clouds and Precipitation
Forecast for 2017-12-17 00:00 UTC. Updated an hour ago

Ground ~20,000 ft ~40,000 ft Winds

SBGO

Details ICAO SBGO (GYN)
Name Santo Genoveva
Region Brazil
Timezone America/Sao_Paulo (UTC-2.0)
Stats Elevation 2,450 ft / 747 m (AMSL)
Location -16.632032° -49.220686°
Runways 1
Magnetic Variation 20.989° W

METAR

SBGO 162000Z 26004KT 200V340 9999 SCT020 25/17 Q1014

Decode

TAF

TAF SBGO 161400Z 1618/1718 34005KT 9999 FEW010 FEW035TCU TX22/1618Z TN20/1708Z PROB30 1618/1622 4000 TSRA BKN010 FEW035CB BECMG 1622/1624 09003KT 9999 RA SCT010 FEW035TCU BECMG 1700/1702 01003KT 9999 FEW010 BECMG 1712/1714 05006KT 9999 BKN030 FEW040TCU RMK PDC

Decode

Departure Runways

ID Width Length Bearing (true) Bearing (mag) Surface Threshold Offset Overrun Length
14 148 ft / 45 m 8,208 ft / 2,502 m 120.42° 141.41° Asphalt 0 ft / 0 m 0 ft / 0 m
32 148 ft / 45 m 8,208 ft / 2,502 m 300.41° 321.40° Asphalt 980 ft / 299 m 0 ft / 0 m

SBUR

Details ICAO SBUR (UBA)
Name Uberaba
Region Brazil
Timezone America/Sao_Paulo (UTC-2.0)
Stats Elevation 2,655 ft / 809 m (AMSL)
Location -19.765000° -47.964777°
Runways 1
Magnetic Variation 21.286° W

METAR

SBUR 161900Z 34010KT 9999 FEW045 25/17 Q1014

Decode

TAF

TAF SBUR 161600Z 1618/1706 05010KT 8000 TSRA SCT020 FEW045CBTX30/1619Z TN21/1705Z BECMG 1621/1623 9999 NSW SCT030 BECMG 1701/1703 CAVOK RMK PGG

Decode

Destination Runways

ID Width Length Bearing (true) Bearing (mag) Surface Threshold Offset Overrun Length
17 148 ft / 45 m 5,791 ft / 1,765 m 149.07° 170.36° Asphalt 0 ft / 0 m 0 ft / 0 m
35 148 ft / 45 m 5,791 ft / 1,765 m 329.07° 350.36° Asphalt 0 ft / 0 m 0 ft / 0 m

Popular Alternatives